Time;durP1;ratioP1;P1;durP2;ratioP2;P2;SDS_P1;SDS_P2;PMS_P1;PMS_P2;Temp;Humidity;BMP_temperature;BMP_pressure;BME280_temperature;BME280_humidity;BME280_pressure;Samples;Min_cycle;Max_cycle;Signal;HPM_P1;HPM_P2
2021/06/29 00:00:40;;;;;;;10.93;6.53;;;19.20;99.90;;;;;;4395383;32;20148;-70
2021/06/29 00:03:08;;;;;;;9.67;5.90;;;19.20;99.90;;;;;;4393602;32;20254;-70
2021/06/29 00:05:37;;;;;;;8.57;5.97;;;19.20;99.90;;;;;;4394386;32;20426;-70
2021/06/29 00:08:07;;;;;;;9.43;5.93;;;19.10;99.90;;;;;;4394571;32;20140;-70
2021/06/29 00:10:36;;;;;;;9.37;5.77;;;19.10;99.90;;;;;;4395433;32;20193;-72
2021/06/29 00:13:05;;;;;;;8.50;6.00;;;19.00;99.90;;;;;;4394535;32;20170;-70
2021/06/29 00:15:33;;;;;;;8.50;5.83;;;18.90;99.90;;;;;;4394383;32;20139;-70
2021/06/29 00:18:00;;;;;;;9.13;5.97;;;19.00;99.90;;;;;;4395418;32;20203;-71
2021/06/29 00:20:27;;;;;;;8.73;6.27;;;18.90;99.90;;;;;;4398312;32;20199;-71
2021/06/29 00:22:54;;;;;;;9.07;5.83;;;18.90;99.90;;;;;;4394189;32;20170;-71
2021/06/29 00:25:21;;;;;;;9.23;5.60;;;18.80;99.90;;;;;;4394183;32;20170;-71
2021/06/29 00:27:48;;;;;;;11.07;5.87;;;18.90;99.90;;;;;;4394205;32;20143;-71
2021/06/29 00:30:16;;;;;;;8.30;6.53;;;18.80;99.90;;;;;;4398367;32;20199;-71
2021/06/29 00:32:43;;;;;;;9.67;6.20;;;18.70;99.90;;;;;;4407487;32;20554;-71
2021/06/29 00:35:11;;;;;;;9.13;6.50;;;18.70;99.90;;;;;;4395839;32;20419;-71
2021/06/29 00:37:39;;;;;;;9.13;6.40;;;18.70;99.90;;;;;;4393804;32;20147;-71
2021/06/29 00:40:07;;;;;;;10.10;6.23;;;18.70;99.90;;;;;;4393790;32;20201;-71
2021/06/29 00:42:35;;;;;;;9.87;5.80;;;18.70;99.90;;;;;;4394477;32;20210;-71
2021/06/29 00:45:05;;;;;;;8.13;6.07;;;18.60;99.90;;;;;;4393975;32;20185;-70
2021/06/29 00:47:32;;;;;;;10.97;6.10;;;18.50;99.90;;;;;;4393459;32;20159;-69
2021/06/29 00:49:59;;;;;;;9.83;6.30;;;18.50;99.90;;;;;;4394850;32;20174;-71
2021/06/29 00:52:27;;;;;;;7.90;5.80;;;18.40;99.90;;;;;;4393824;32;20225;-70
2021/06/29 00:54:55;;;;;;;8.53;6.07;;;18.40;99.90;;;;;;4393771;32;20395;-70
2021/06/29 00:57:21;;;;;;;10.23;6.20;;;18.30;99.90;;;;;;4393610;32;20159;-71
2021/06/29 00:59:48;;;;;;;7.93;5.60;;;18.30;99.90;;;;;;4393652;32;20202;-70
2021/06/29 01:02:15;;;;;;;11.13;6.30;;;18.30;99.90;;;;;;4401051;32;20171;-70
2021/06/29 01:04:43;;;;;;;9.30;6.10;;;18.30;99.90;;;;;;4394213;32;20272;-70
2021/06/29 01:07:12;;;;;;;8.90;5.70;;;18.40;99.90;;;;;;4393582;32;20185;-70
2021/06/29 01:09:40;;;;;;;9.73;5.90;;;18.40;99.90;;;;;;4393601;32;20152;-70
2021/06/29 01:12:10;;;;;;;8.43;5.97;;;18.40;99.90;;;;;;4393799;32;20241;-70
2021/06/29 01:14:37;;;;;;;9.20;6.60;;;18.30;99.90;;;;;;4393864;32;20196;-71
2021/06/29 01:17:05;;;;;;;13.83;6.23;;;18.40;99.90;;;;;;4393420;32;20147;-70
2021/06/29 01:19:51;;;;;;;9.00;6.17;;;18.30;99.90;;;;;;4393526;32;20231;-71
2021/06/29 01:22:20;;;;;;;9.90;6.53;;;18.30;99.90;;;;;;4395190;32;20144;-70
2021/06/29 01:24:51;;;;;;;9.47;6.30;;;18.30;99.90;;;;;;4393503;32;20179;-70
2021/06/29 01:32:22;;;;;;;10.33;6.47;;;18.40;99.90;;;;;;4393913;32;20210;-70
2021/06/29 01:34:49;;;;;;;10.63;6.30;;;18.40;99.90;;;;;;4394747;32;20222;-70
2021/06/29 01:37:18;;;;;;;9.63;5.83;;;18.40;99.90;;;;;;4392663;32;20421;-70
2021/06/29 01:40:04;;;;;;;10.07;6.10;;;18.40;99.90;;;;;;4394640;32;20419;-70
2021/06/29 01:42:31;;;;;;;8.50;5.83;;;18.30;99.90;;;;;;4393961;32;20166;-71
2021/06/29 01:44:58;;;;;;;8.40;5.83;;;18.30;99.90;;;;;;4393285;32;20136;-71
2021/06/29 01:47:34;;;;;;;8.70;6.00;;;18.30;99.90;;;;;;4393888;32;20175;-71
2021/06/29 01:50:17;;;;;;;9.40;6.10;;;18.30;99.90;;;;;;4396466;32;20441;-71
2021/06/29 01:52:45;;;;;;;7.37;5.70;;;18.30;99.90;;;;;;4398111;32;20162;-71
2021/06/29 01:55:12;;;;;;;8.10;5.80;;;18.20;99.90;;;;;;4397734;32;20144;-71
2021/06/29 01:57:43;;;;;;;8.23;5.97;;;18.30;99.90;;;;;;4396198;32;20143;-71
2021/06/29 02:00:11;;;;;;;7.87;5.90;;;18.30;99.90;;;;;;4396386;32;20469;-72
2021/06/29 02:02:38;;;;;;;9.90;5.70;;;18.20;99.90;;;;;;4398057;32;20184;-71
2021/06/29 02:05:05;;;;;;;9.87;5.80;;;18.20;99.90;;;;;;4396196;32;20151;-71
2021/06/29 02:07:32;;;;;;;8.40;6.27;;;18.10;99.90;;;;;;4397629;32;20427;-71
2021/06/29 02:09:59;;;;;;;8.70;6.03;;;18.00;99.90;;;;;;4397521;32;20132;-71
2021/06/29 02:12:26;;;;;;;8.63;5.90;;;17.90;99.90;;;;;;4395989;32;20515;-70
2021/06/29 02:14:53;;;;;;;13.10;5.73;;;17.90;99.90;;;;;;4397384;32;20165;-70
2021/06/29 02:17:20;;;;;;;10.23;6.50;;;17.90;99.90;;;;;;4395922;32;20238;-70
2021/06/29 02:19:47;;;;;;;10.10;6.30;;;17.90;99.90;;;;;;4396044;32;20513;-70
2021/06/29 02:22:14;;;;;;;7.40;6.03;;;17.90;99.90;;;;;;4395821;32;20161;-70
2021/06/29 02:24:41;;;;;;;8.87;5.90;;;17.90;99.90;;;;;;4395490;32;20579;-70
2021/06/29 02:27:08;;;;;;;7.90;5.80;;;17.90;99.90;;;;;;4396664;32;20160;-71
2021/06/29 02:29:36;;;;;;;8.20;5.97;;;17.80;99.90;;;;;;4396617;32;20488;-71
2021/06/29 02:32:03;;;;;;;9.10;6.00;;;17.80;99.90;;;;;;4397192;32;20441;-71
2021/06/29 02:34:30;;;;;;;8.40;5.90;;;17.80;99.90;;;;;;4397223;32;20143;-71
2021/06/29 02:36:56;;;;;;;8.53;5.90;;;17.90;99.90;;;;;;4395616;32;20461;-71
2021/06/29 02:39:23;;;;;;;9.43;5.57;;;17.80;99.90;;;;;;4395515;32;20147;-71
2021/06/29 02:41:50;;;;;;;9.40;6.00;;;17.80;99.90;;;;;;4397049;32;20503;-71
2021/06/29 02:44:20;;;;;;;9.87;5.90;;;17.80;99.90;;;;;;4395096;32;20605;-71
2021/06/29 02:46:47;;;;;;;8.30;5.83;;;17.70;99.90;;;;;;4395645;32;20156;-71
2021/06/29 02:49:14;;;;;;;7.83;5.63;;;17.80;99.90;;;;;;4397103;32;20205;-71
2021/06/29 02:51:41;;;;;;;8.43;5.50;;;17.80;99.90;;;;;;4396919;32;20155;-71
2021/06/29 02:54:08;;;;;;;9.03;5.53;;;17.80;99.90;;;;;;4395455;32;20262;-71
2021/06/29 02:56:38;;;;;;;9.10;5.73;;;17.80;99.90;;;;;;4396799;32;20339;-71
2021/06/29 02:59:12;;;;;;;7.27;5.63;;;17.80;99.90;;;;;;4394681;32;20155;-71
2021/06/29 03:01:40;;;;;;;8.50;6.07;;;17.70;99.90;;;;;;4395138;32;20156;-71
2021/06/29 03:04:09;;;;;;;9.00;5.80;;;17.80;99.90;;;;;;4395260;32;20185;-71
2021/06/29 03:06:36;;;;;;;10.77;5.87;;;17.80;99.90;;;;;;4396403;32;20410;-71
2021/06/29 03:09:05;;;;;;;8.67;5.53;;;17.80;99.90;;;;;;4395423;32;20218;-71
2021/06/29 03:11:32;;;;;;;10.40;6.10;;;17.80;99.90;;;;;;4395696;32;20198;-71
2021/06/29 03:13:59;;;;;;;8.63;5.93;;;17.80;99.90;;;;;;4395189;32;20132;-71
2021/06/29 03:16:26;;;;;;;9.53;5.80;;;17.80;99.90;;;;;;4395310;32;20144;-71
2021/06/29 03:18:53;;;;;;;9.90;6.17;;;17.80;99.90;;;;;;4395122;32;20175;-71
2021/06/29 03:21:22;;;;;;;10.70;6.10;;;17.90;99.90;;;;;;4395125;32;20188;-71
2021/06/29 03:23:51;;;;;;;11.67;6.37;;;17.90;99.90;;;;;;4396683;32;20139;-71
2021/06/29 03:26:18;;;;;;;7.57;5.77;;;18.00;99.90;;;;;;4395176;32;20140;-71
2021/06/29 03:28:45;;;;;;;8.23;5.97;;;18.00;99.90;;;;;;4394952;32;20139;-71
2021/06/29 03:31:13;;;;;;;8.30;6.03;;;18.00;99.90;;;;;;4396381;32;20470;-71
2021/06/29 03:33:40;;;;;;;8.57;5.93;;;18.10;99.90;;;;;;4396333;32;20189;-72
2021/06/29 03:36:08;;;;;;;8.20;6.03;;;18.20;99.90;;;;;;4394692;32;20454;-72
2021/06/29 03:38:35;;;;;;;8.90;6.13;;;18.20;99.90;;;;;;4396220;32;20398;-72
2021/06/29 03:41:02;;;;;;;8.30;5.90;;;18.20;99.90;;;;;;4394710;32;20167;-72
2021/06/29 03:43:33;;;;;;;8.17;5.60;;;18.20;99.90;;;;;;4394759;32;20144;-72
2021/06/29 03:46:01;;;;;;;8.03;5.73;;;18.30;99.90;;;;;;4395011;32;20223;-72
2021/06/29 03:48:28;;;;;;;7.60;5.40;;;18.30;99.90;;;;;;4394609;32;20183;-71
2021/06/29 03:50:55;;;;;;;8.73;5.80;;;18.30;99.90;;;;;;4394753;32;20135;-72
2021/06/29 03:53:22;;;;;;;8.43;5.90;;;18.50;99.90;;;;;;4400292;32;20155;-72
2021/06/29 03:55:49;;;;;;;6.50;5.03;;;18.50;99.90;;;;;;4409846;32;20143;-71
2021/06/29 03:58:17;;;;;;;8.20;6.13;;;18.60;99.90;;;;;;4409513;32;20159;-71
2021/06/29 04:00:44;;;;;;;8.07;6.00;;;18.60;99.90;;;;;;4409172;32;20165;-73
2021/06/29 04:03:12;;;;;;;7.13;5.50;;;18.70;99.90;;;;;;4406761;32;20160;-71
2021/06/29 04:05:39;;;;;;;9.17;5.70;;;18.80;99.90;;;;;;4399224;32;20156;-70
2021/06/29 04:08:06;;;;;;;9.07;5.97;;;18.70;99.90;;;;;;4394268;32;20143;-71
2021/06/29 04:10:33;;;;;;;7.40;5.73;;;18.70;99.90;;;;;;4394585;32;20491;-70
2021/06/29 04:13:01;;;;;;;10.33;6.73;;;18.90;99.90;;;;;;4393498;32;20445;-71
2021/06/29 04:15:28;;;;;;;9.37;6.07;;;19.00;99.90;;;;;;4395705;32;20408;-72
2021/06/29 04:17:55;;;;;;;11.27;6.00;;;19.10;99.90;;;;;;4394050;32;20179;-72
2021/06/29 04:20:22;;;;;;;8.07;6.07;;;19.10;99.90;;;;;;4395656;32;20139;-72
2021/06/29 04:22:49;;;;;;;11.03;6.40;;;19.20;99.90;;;;;;4394187;32;20140;-72
2021/06/29 04:25:16;;;;;;;9.03;5.83;;;19.30;99.90;;;;;;4393992;32;20440;-72
2021/06/29 04:27:43;;;;;;;11.57;5.80;;;19.40;99.90;;;;;;4393929;32;20193;-72
2021/06/29 04:30:10;;;;;;;7.87;5.70;;;19.50;99.90;;;;;;4394062;32;20167;-72
2021/06/29 04:32:37;;;;;;;9.03;5.67;;;19.60;99.90;;;;;;4393969;32;20143;-71
2021/06/29 04:35:06;;;;;;;7.67;5.50;;;19.70;99.90;;;;;;4393936;32;20320;-69
2021/06/29 04:37:32;;;;;;;9.47;6.23;;;19.80;99.90;;;;;;4393348;32;20140;-69
2021/06/29 04:39:59;;;;;;;10.43;6.40;;;20.00;99.90;;;;;;4393087;32;20151;-70
2021/06/29 04:42:26;;;;;;;11.87;6.70;;;20.00;99.90;;;;;;4395229;32;20203;-69
2021/06/29 04:44:53;;;;;;;13.03;6.10;;;20.00;99.90;;;;;;4393935;32;20159;-70
2021/06/29 04:47:20;;;;;;;9.87;6.27;;;20.10;99.90;;;;;;4393839;32;20206;-69
2021/06/29 04:49:47;;;;;;;8.27;6.07;;;20.20;99.90;;;;;;4393761;32;20215;-70
2021/06/29 04:52:14;;;;;;;8.37;5.90;;;20.30;99.90;;;;;;4393868;32;20148;-70
2021/06/29 04:54:41;;;;;;;10.07;5.50;;;20.40;99.90;;;;;;4393411;32;20160;-70
2021/06/29 04:57:08;;;;;;;8.33;5.87;;;20.50;99.90;;;;;;4393855;32;20171;-70
2021/06/29 04:59:35;;;;;;;10.57;6.07;;;20.60;99.90;;;;;;4393594;32;20170;-71
2021/06/29 05:02:02;;;;;;;7.43;5.73;;;20.60;99.90;;;;;;4392395;32;20168;-71
2021/06/29 05:04:29;;;;;;;8.77;5.77;;;20.70;99.90;;;;;;4393911;32;20182;-70
2021/06/29 05:06:56;;;;;;;8.73;5.83;;;20.80;99.90;;;;;;4394442;32;20147;-71
2021/06/29 05:09:23;;;;;;;10.37;6.23;;;20.80;99.90;;;;;;4393125;32;20135;-71
2021/06/29 05:11:50;;;;;;;8.23;5.60;;;20.80;99.90;;;;;;4401846;32;20252;-71
2021/06/29 05:14:17;;;;;;;7.80;5.87;;;20.90;99.90;;;;;;4408428;32;20197;-72
2021/06/29 05:16:44;;;;;;;8.13;5.20;;;21.00;99.90;;;;;;4408691;32;20426;-72
2021/06/29 05:19:11;;;;;;;10.03;5.73;;;21.10;99.90;;;;;;4408702;32;20506;-72
2021/06/29 05:21:38;;;;;;;7.03;4.87;;;21.10;99.90;;;;;;4410238;32;20183;-72
2021/06/29 05:24:05;;;;;;;6.77;5.03;;;21.20;99.90;;;;;;4408601;32;20131;-71
2021/06/29 05:26:32;;;;;;;8.27;5.30;;;21.30;99.90;;;;;;4408898;32;20275;-72
2021/06/29 05:28:59;;;;;;;9.23;4.90;;;21.50;99.90;;;;;;4408849;32;20192;-72
2021/06/29 05:31:26;;;;;;;9.07;5.53;;;21.60;99.90;;;;;;4404246;32;20212;-72
2021/06/29 05:33:53;;;;;;;7.30;5.53;;;21.60;99.90;;;;;;4393504;32;20143;-72
2021/06/29 05:36:20;;;;;;;7.60;5.57;;;21.70;99.90;;;;;;4393492;32;20144;-71
2021/06/29 05:38:47;;;;;;;10.63;5.47;;;21.80;99.90;;;;;;4393461;32;20143;-71
2021/06/29 05:41:14;;;;;;;9.57;5.53;;;21.80;99.90;;;;;;4393746;32;20135;-71
2021/06/29 05:43:40;;;;;;;8.17;5.37;;;21.90;99.90;;;;;;4393608;32;20476;-71
2021/06/29 05:46:07;;;;;;;9.40;5.30;;;22.00;99.90;;;;;;4394397;32;20147;-71
2021/06/29 05:48:34;;;;;;;9.73;5.83;;;22.10;99.90;;;;;;4393596;32;20559;-71
2021/06/29 05:51:03;;;;;;;9.20;5.53;;;22.10;99.90;;;;;;4395203;32;20139;-71
2021/06/29 05:53:30;;;;;;;8.17;4.93;;;22.10;99.90;;;;;;4393717;32;20461;-77
2021/06/29 05:55:58;;;;;;;10.27;5.63;;;22.20;99.90;;;;;;4393768;32;20151;-73
2021/06/29 05:58:26;;;;;;;9.52;5.45;;;22.30;99.90;;;;;;4394727;32;20159;-73
2021/06/29 06:00:53;;;;;;;8.23;5.68;;;22.50;99.90;;;;;;4379049;32;20455;-73
2021/06/29 06:03:20;;;;;;;8.93;5.13;;;22.50;99.90;;;;;;4395087;32;20208;-73
2021/06/29 06:05:48;;;;;;;8.10;4.70;;;22.60;99.90;;;;;;4393712;32;20151;-74
2021/06/29 06:08:15;;;;;;;6.87;4.80;;;22.80;99.90;;;;;;4391611;32;20171;-73
2021/06/29 06:10:43;;;;;;;8.27;4.90;;;22.80;99.90;;;;;;4393440;32;20162;-72
2021/06/29 06:13:10;;;;;;;7.20;5.05;;;23.00;99.90;;;;;;4398731;32;20147;-72
2021/06/29 06:15:37;;;;;;;7.80;4.82;;;23.10;99.90;;;;;;4410096;32;20143;-73
2021/06/29 06:18:05;;;;;;;5.80;4.60;;;23.10;99.90;;;;;;4401285;32;20406;-73
2021/06/29 06:20:36;;;;;;;6.43;4.53;;;23.20;99.90;;;;;;4393501;32;20139;-72
2021/06/29 06:23:04;;;;;;;6.25;4.68;;;23.40;99.90;;;;;;4394760;32;20148;-72
2021/06/29 06:25:32;;;;;;;10.10;4.72;;;23.40;99.90;;;;;;4391726;32;20199;-72
2021/06/29 06:28:00;;;;;;;6.63;4.43;;;23.50;99.90;;;;;;4394737;32;20206;-73
2021/06/29 06:30:26;;;;;;;6.93;4.53;;;23.50;99.90;;;;;;4393269;32;20140;-72
2021/06/29 06:32:54;;;;;;;7.10;4.50;;;23.50;99.90;;;;;;4393687;32;20166;-73
2021/06/29 06:35:21;;;;;;;6.63;4.93;;;23.50;99.90;;;;;;4393248;32;20147;-72
2021/06/29 06:37:48;;;;;;;6.62;4.55;;;23.60;99.90;;;;;;4394810;32;20147;-73
2021/06/29 06:40:15;;;;;;;5.07;4.45;;;23.70;99.90;;;;;;4395431;32;20156;-73
2021/06/29 06:42:42;;;;;;;10.98;4.87;;;23.70;99.90;;;;;;4396253;32;20518;-73
2021/06/29 06:45:10;;;;;;;7.10;4.37;;;24.00;99.90;;;;;;4396765;32;20532;-72
2021/06/29 06:47:38;;;;;;;6.50;4.45;;;24.00;99.90;;;;;;4395663;32;20245;-72
2021/06/29 06:50:07;;;;;;;7.25;4.45;;;24.10;99.90;;;;;;4395727;32;20140;-73
2021/06/29 06:52:37;;;;;;;5.30;4.40;;;24.20;99.90;;;;;;4396174;32;20131;-73
2021/06/29 06:55:06;;;;;;;5.62;4.65;;;24.30;99.90;;;;;;4395619;32;20186;-72
2021/06/29 06:57:34;;;;;;;6.35;4.60;;;24.40;99.90;;;;;;4395445;32;20159;-71
2021/06/29 07:00:01;;;;;;;7.57;4.43;;;24.40;99.90;;;;;;4395477;32;20189;-71
2021/06/29 07:02:28;;;;;;;5.65;4.30;;;24.40;99.90;;;;;;4396334;32;20140;-73
2021/06/29 07:04:54;;;;;;;8.15;4.25;;;24.50;99.60;;;;;;4395164;32;20160;-72
2021/06/29 07:07:21;;;;;;;5.78;4.15;;;24.50;99.50;;;;;;4395662;32;20147;-73
2021/06/29 07:09:48;;;;;;;5.10;4.05;;;24.60;98.60;;;;;;4395939;32;20436;-73
2021/06/29 07:12:15;;;;;;;5.87;4.15;;;24.60;98.30;;;;;;4394157;32;20201;-71
2021/06/29 07:14:42;;;;;;;6.70;4.15;;;24.60;98.50;;;;;;4394247;32;20210;-72
2021/06/29 07:17:09;;;;;;;17.73;5.10;;;24.70;98.40;;;;;;4397119;32;20136;-73
2021/06/29 07:19:36;;;;;;;16.00;4.70;;;24.80;99.20;;;;;;4394036;32;20445;-72
2021/06/29 07:22:03;;;;;;;8.02;4.50;;;25.00;99.50;;;;;;4395528;32;20163;-73
2021/06/29 07:24:30;;;;;;;6.62;4.30;;;25.10;98.60;;;;;;4393605;32;20233;-72
2021/06/29 07:26:57;;;;;;;7.30;5.15;;;25.00;97.80;;;;;;4396210;32;20188;-72
2021/06/29 07:29:24;;;;;;;8.73;5.00;;;25.10;98.70;;;;;;4395266;32;20485;-73
2021/06/29 07:31:51;;;;;;;9.60;4.68;;;25.20;98.30;;;;;;4394110;32;20220;-72
2021/06/29 07:34:19;;;;;;;6.78;4.60;;;25.30;98.10;;;;;;4395381;32;20148;-72
2021/06/29 07:36:45;;;;;;;27.25;6.22;;;25.20;95.40;;;;;;4394952;32;20158;-73
2021/06/29 07:39:12;;;;;;;11.10;4.68;;;25.10;96.70;;;;;;4395145;32;20167;-73
2021/06/29 07:41:39;;;;;;;5.78;4.12;;;25.20;94.70;;;;;;4395389;32;20175;-73
2021/06/29 07:44:06;;;;;;;7.30;3.60;;;25.20;95.30;;;;;;4395644;32;20201;-73
2021/06/29 07:46:33;;;;;;;5.97;3.70;;;25.30;92.90;;;;;;4396500;32;20473;-73
2021/06/29 07:49:01;;;;;;;3.70;3.37;;;25.40;92.70;;;;;;4396930;32;20384;-71
2021/06/29 07:51:27;;;;;;;4.90;3.95;;;25.50;92.40;;;;;;4396487;32;20223;-71
2021/06/29 07:53:55;;;;;;;5.97;3.80;;;25.50;92.50;;;;;;4395386;32;20158;-73
2021/06/29 07:56:22;;;;;;;5.93;4.20;;;25.50;91.40;;;;;;4395116;32;20144;-74
2021/06/29 07:58:48;;;;;;;4.45;3.92;;;25.50;91.30;;;;;;4394964;32;20193;-74
2021/06/29 08:01:16;;;;;;;7.10;4.00;;;25.50;91.40;;;;;;4396416;32;20143;-74
2021/06/29 08:03:44;;;;;;;6.05;4.22;;;25.60;90.80;;;;;;4394792;32;20193;-74
2021/06/29 08:06:13;;;;;;;4.97;4.10;;;25.70;92.10;;;;;;4396003;32;20139;-74
2021/06/29 08:08:41;;;;;;;5.68;4.07;;;25.80;92.10;;;;;;4394996;32;20196;-74
2021/06/29 08:11:10;;;;;;;7.75;4.10;;;25.80;92.30;;;;;;4394854;32;20143;-74
2021/06/29 08:13:38;;;;;;;4.30;3.90;;;25.90;91.50;;;;;;4401976;32;20159;-73
2021/06/29 08:16:09;;;;;;;19.02;5.72;;;26.10;90.70;;;;;;4402368;32;20446;-74
2021/06/29 08:18:38;;;;;;;5.05;4.00;;;26.10;92.30;;;;;;4394052;32;20197;-73
2021/06/29 08:21:06;;;;;;;6.47;4.20;;;26.10;90.00;;;;;;4396127;32;20400;-73
2021/06/29 08:23:34;;;;;;;8.48;4.87;;;26.10;90.10;;;;;;4394321;32;20207;-72
2021/06/29 08:26:03;;;;;;;7.68;4.18;;;26.20;90.40;;;;;;4394755;32;20243;-72
2021/06/29 08:28:34;;;;;;;4.93;4.20;;;26.60;89.50;;;;;;4395833;32;20179;-72
2021/06/29 08:31:03;;;;;;;4.93;3.90;;;27.50;85.40;;;;;;4394726;32;20151;-72
2021/06/29 08:33:32;;;;;;;6.07;4.10;;;28.40;83.20;;;;;;4395584;32;20324;-72
2021/06/29 08:36:00;;;;;;;5.82;3.90;;;29.10;74.60;;;;;;4394260;32;20495;-73
2021/06/29 08:38:27;;;;;;;5.25;4.05;;;29.10;72.50;;;;;;4394523;32;20136;-72
2021/06/29 08:40:55;;;;;;;4.28;3.83;;;28.60;73.90;;;;;;4394447;32;20147;-74
2021/06/29 08:43:22;;;;;;;5.30;3.95;;;28.30;73.00;;;;;;4395098;32;20136;-72
2021/06/29 08:45:51;;;;;;;6.35;4.37;;;28.10;72.70;;;;;;4394199;32;20140;-73
2021/06/29 08:48:19;;;;;;;4.65;4.07;;;28.80;72.10;;;;;;4394372;32;20224;-74
2021/06/29 08:50:46;;;;;;;307.05;24.60;;;29.30;71.80;;;;;;4394311;32;20159;-75
2021/06/29 08:53:13;;;;;;;45.72;7.55;;;29.60;73.00;;;;;;4394235;32;20168;-75
2021/06/29 08:55:47;;;;;;;155.07;16.30;;;30.20;71.00;;;;;;4393940;32;20175;-75
2021/06/29 08:58:23;;;;;;;7.10;3.60;;;30.50;66.90;;;;;;4396006;32;20203;-76
2021/06/29 09:00:52;;;;;;;65.55;9.88;;;31.10;61.00;;;;;;4394193;32;20183;-75
2021/06/29 09:03:19;;;;;;;5.57;3.20;;;30.90;59.70;;;;;;4391184;32;20188;-75
2021/06/29 09:05:50;;;;;;;23.55;4.90;;;31.10;58.60;;;;;;4396158;32;20151;-73
2021/06/29 09:08:19;;;;;;;6.43;3.50;;;31.10;59.20;;;;;;4400627;32;20481;-73
2021/06/29 09:11:08;;;;;;;3.80;3.10;;;31.20;57.00;;;;;;4394168;32;20187;-73
2021/06/29 09:13:36;;;;;;;9.55;3.75;;;30.90;55.10;;;;;;4394960;32;20303;-74
2021/06/29 09:16:04;;;;;;;24.10;5.05;;;30.90;55.70;;;;;;4395256;32;20143;-73
2021/06/29 09:18:35;;;;;;;159.43;18.52;;;30.70;55.20;;;;;;4393738;32;20524;-73
2021/06/29 09:21:03;;;;;;;6.53;3.40;;;30.70;56.10;;;;;;4395502;32;20174;-74
2021/06/29 09:23:51;;;;;;;17.58;4.72;;;30.20;55.90;;;;;;4394471;32;20523;-73
2021/06/29 09:26:24;;;;;;;358.77;29.67;;;30.00;57.00;;;;;;4393739;32;20143;-73
2021/06/29 09:28:55;;;;;;;7.72;3.78;;;30.30;59.50;;;;;;4393975;32;20207;-74
2021/06/29 09:31:33;;;;;;;12.55;3.47;;;30.90;56.30;;;;;;4394052;32;20276;-74
2021/06/29 09:34:07;;;;;;;16.33;4.05;;;31.20;53.60;;;;;;4392216;32;20206;-73
2021/06/29 09:36:38;;;;;;;32.13;6.95;;;31.60;53.50;;;;;;4394099;32;20172;-74
2021/06/29 09:39:12;;;;;;;7.07;3.53;;;31.20;54.60;;;;;;4393188;32;20144;-73
2021/06/29 09:41:41;;;;;;;10.02;4.20;;;30.80;54.50;;;;;;4395053;32;20222;-73
2021/06/29 09:44:11;;;;;;;152.68;19.83;;;30.70;55.70;;;;;;4393484;32;20140;-74
2021/06/29 09:46:40;;;;;;;5.22;3.22;;;31.00;58.10;;;;;;4393486;32;20355;-73
2021/06/29 09:49:13;;;;;;;8.77;3.70;;;31.70;53.50;;;;;;4393692;32;20144;-73
2021/06/29 09:51:49;;;;;;;35.95;7.12;;;31.60;52.80;;;;;;4394445;32;20151;-73
2021/06/29 09:54:17;;;;;;;6.55;3.33;;;31.60;54.40;;;;;;4391928;32;20221;-74
2021/06/29 09:56:47;;;;;;;7.18;3.75;;;31.50;53.10;;;;;;4393655;32;20202;-72
2021/06/29 09:59:26;;;;;;;13.88;3.85;;;31.70;53.60;;;;;;4395334;32;20194;-71
2021/06/29 10:02:11;;;;;;;43.67;8.13;;;32.00;53.70;;;;;;4394688;32;20136;-71
2021/06/29 10:04:38;;;;;;;48.53;8.52;;;32.40;54.60;;;;;;4393999;32;20404;-72
2021/06/29 10:07:17;;;;;;;6.20;3.55;;;32.80;52.00;;;;;;4393363;32;20203;-72
2021/06/29 10:10:04;;;;;;;3.80;3.25;;;32.90;50.20;;;;;;4393540;32;20170;-72
2021/06/29 10:12:31;;;;;;;6.97;3.42;;;33.10;51.00;;;;;;4397123;32;20223;-73
2021/06/29 10:14:58;;;;;;;9.95;3.92;;;32.80;49.70;;;;;;4396365;32;20224;-76
2021/06/29 10:17:25;;;;;;;3.37;2.90;;;32.50;48.00;;;;;;4396191;32;20161;-73
2021/06/29 10:20:11;;;;;;;3.78;2.83;;;33.00;47.80;;;;;;4396391;32;20174;-73
2021/06/29 10:22:39;;;;;;;33.47;6.15;;;32.90;48.10;;;;;;4395516;32;20410;-73
2021/06/29 10:25:07;;;;;;;4.78;3.30;;;33.30;49.00;;;;;;4396483;32;20148;-75
2021/06/29 10:27:34;;;;;;;5.70;3.50;;;33.30;47.50;;;;;;4397860;32;20158;-74
2021/06/29 10:30:02;;;;;;;4.37;3.30;;;33.00;49.30;;;;;;4396223;32;20186;-75
2021/06/29 10:32:30;;;;;;;8.38;3.53;;;31.60;49.10;;;;;;4397132;32;20159;-75
2021/06/29 10:34:57;;;;;;;6.05;3.60;;;32.10;51.00;;;;;;4397537;32;20215;-75
2021/06/29 10:37:24;;;;;;;4.70;3.40;;;32.00;48.60;;;;;;4396129;32;20530;-75
2021/06/29 10:39:51;;;;;;;4.05;3.47;;;32.10;50.30;;;;;;4397465;32;20254;-75
2021/06/29 10:42:19;;;;;;;5.25;3.35;;;32.20;50.40;;;;;;4397180;32;20461;-74
2021/06/29 10:44:50;;;;;;;5.95;3.20;;;32.50;49.90;;;;;;4397618;32;20380;-73
2021/06/29 10:47:32;;;;;;;7.20;3.42;;;32.90;47.00;;;;;;4404144;32;20230;-73
2021/06/29 10:50:01;;;;;;;8.32;3.45;;;32.90;48.80;;;;;;4399959;32;20163;-73
2021/06/29 10:52:28;;;;;;;11.23;4.05;;;31.70;50.40;;;;;;4403975;32;20201;-74
2021/06/29 10:55:00;;;;;;;7.70;3.70;;;32.50;50.50;;;;;;4395432;32;20529;-73
2021/06/29 10:57:43;;;;;;;3.90;3.20;;;33.70;49.20;;;;;;4397512;32;20181;-74
2021/06/29 11:00:32;;;;;;;11.50;4.07;;;33.90;47.70;;;;;;4396893;32;20148;-74
2021/06/29 11:03:08;;;;;;;14.63;4.20;;;33.60;48.00;;;;;;4397328;32;20144;-72
2021/06/29 11:05:41;;;;;;;4.57;3.30;;;34.10;48.70;;;;;;4396006;32;20159;-72
2021/06/29 11:08:11;;;;;;;5.78;3.37;;;34.30;46.00;;;;;;4396127;32;20181;-71
2021/06/29 11:10:41;;;;;;;8.98;3.78;;;34.30;45.00;;;;;;4397046;32;20219;-73
2021/06/29 11:13:10;;;;;;;9.90;4.45;;;34.50;46.40;;;;;;4396000;32;20181;-73
2021/06/29 11:15:49;;;;;;;108.72;14.65;;;35.20;45.00;;;;;;4394993;32;20140;-72
2021/06/29 11:18:19;;;;;;;22.27;5.65;;;35.50;45.20;;;;;;4397228;32;20135;-74
2021/06/29 11:20:49;;;;;;;129.07;17.75;;;35.70;44.20;;;;;;4396944;32;20155;-74
2021/06/29 11:23:23;;;;;;;181.45;20.70;;;35.30;43.80;;;;;;4394766;32;20508;-75
2021/06/29 11:25:55;;;;;;;5.07;3.50;;;35.30;44.30;;;;;;4397414;32;20148;-74
2021/06/29 11:28:49;;;;;;;120.78;14.98;;;34.40;42.50;;;;;;4396342;32;20144;-74
2021/06/29 11:31:33;;;;;;;130.27;14.90;;;35.10;44.00;;;;;;4395865;32;20512;-74
2021/06/29 11:34:07;;;;;;;70.05;9.60;;;35.20;44.70;;;;;;4397698;32;20187;-72
2021/06/29 11:36:36;;;;;;;6.80;3.67;;;35.70;45.30;;;;;;4405477;32;20151;-73
2021/06/29 11:39:19;;;;;;;8.57;4.15;;;36.20;42.10;;;;;;4395331;32;20384;-73
2021/06/29 11:42:04;;;;;;;6.32;3.45;;;36.60;42.30;;;;;;4396688;32;20186;-73
2021/06/29 11:44:36;;;;;;;6.37;3.10;;;36.80;41.70;;;;;;4396686;32;20210;-73
2021/06/29 11:47:06;;;;;;;6.85;3.25;;;35.90;42.60;;;;;;4395091;32;20231;-72
2021/06/29 11:49:36;;;;;;;3.60;2.90;;;36.40;41.50;;;;;;4395022;32;20139;-73
2021/06/29 11:52:06;;;;;;;3.67;3.17;;;37.00;40.70;;;;;;4396360;32;20504;-72
2021/06/29 11:54:37;;;;;;;4.72;3.20;;;37.10;40.00;;;;;;4396546;32;20394;-73
2021/06/29 11:57:39;;;;;;;3.25;2.95;;;37.40;40.30;;;;;;4396984;32;20178;-74
2021/06/29 12:00:34;;;;;;;3.50;2.72;;;37.00;38.80;;;;;;4396457;32;20170;-73
2021/06/29 12:03:12;;;;;;;98.28;9.45;;;37.20;37.30;;;;;;4396435;32;20179;-72
2021/06/29 12:05:40;;;;;;;25.20;4.85;;;37.10;39.50;;;;;;4396156;32;20172;-72
2021/06/29 12:08:12;;;;;;;8.38;3.20;;;36.30;39.70;;;;;;4394937;32;20140;-72
2021/06/29 12:10:42;;;;;;;13.10;3.33;;;36.50;39.30;;;;;;4394639;32;20139;-71
2021/06/29 12:13:11;;;;;;;25.33;4.57;;;36.40;39.10;;;;;;4394307;32;20151;-70
2021/06/29 12:15:44;;;;;;;26.27;4.25;;;36.80;39.20;;;;;;4393978;32;20174;-70
2021/06/29 12:18:28;;;;;;;3.00;2.70;;;37.20;39.10;;;;;;4395254;32;20470;-72
2021/06/29 12:20:59;;;;;;;19.20;4.03;;;37.20;37.10;;;;;;4395951;32;20222;-71
2021/06/29 12:23:29;;;;;;;7.53;3.00;;;37.30;39.00;;;;;;4395740;32;20159;-71
2021/06/29 12:26:07;;;;;;;23.48;4.47;;;37.00;39.10;;;;;;4399068;32;20493;-71
2021/06/29 12:28:37;;;;;;;7.35;2.70;;;37.50;37.80;;;;;;4396553;32;20189;-70
2021/06/29 12:31:08;;;;;;;25.65;4.35;;;37.50;36.40;;;;;;4395699;32;20143;-71
2021/06/29 12:33:37;;;;;;;24.70;4.10;;;37.30;38.10;;;;;;4401055;32;20147;-70
2021/06/29 12:36:04;;;;;;;28.23;4.55;;;37.80;38.40;;;;;;4409230;32;20191;-73
2021/06/29 12:38:33;;;;;;;21.85;4.03;;;38.40;37.30;;;;;;4410971;32;20152;-73
2021/06/29 12:41:07;;;;;;;425.10;41.92;;;38.70;36.40;;;;;;4409454;32;20198;-72
2021/06/29 12:43:43;;;;;;;619.25;61.30;;;38.70;37.60;;;;;;4411290;32;20147;-74
2021/06/29 12:46:15;;;;;;;10.70;3.67;;;38.90;36.70;;;;;;4410874;32;20139;-72
2021/06/29 12:48:57;;;;;;;205.68;20.98;;;38.80;33.00;;;;;;4409162;32;20213;-71
2021/06/29 12:51:24;;;;;;;221.85;22.73;;;38.80;33.50;;;;;;4409377;32;20178;-72
2021/06/29 12:53:56;;;;;;;67.45;9.73;;;38.60;34.40;;;;;;4410811;32;20178;-73
2021/06/29 12:56:33;;;;;;;149.90;18.83;;;38.20;30.70;;;;;;4409341;32;20457;-72
2021/06/29 12:59:01;;;;;;;340.37;31.37;;;37.60;32.20;;;;;;4410636;32;20211;-71